Time;durP1;ratioP1;P1;durP2;ratioP2;P2;SDS_P1;SDS_P2;PMS_P1;PMS_P2;Temp;Humidity;BMP_temperature;BMP_pressure;BME280_temperature;BME280_humidity;BME280_pressure;Samples;Min_cycle;Max_cycle;Signal;HPM_P1;HPM_P2
2023/06/27 00:00:11;;;;;;;7.15;4.60;;;;;;;17.08;100.00;101909.38;5043508;28;20033;-74
2023/06/27 00:02:38;;;;;;;8.73;5.40;;;;;;;17.12;100.00;101909.16;5040262;28;20144;-74
2023/06/27 00:05:04;;;;;;;9.88;4.78;;;;;;;17.09;100.00;101902.16;5037680;28;20033;-75
2023/06/27 00:07:30;;;;;;;6.38;4.55;;;;;;;17.21;100.00;101901.25;5067598;28;20605;-73
2023/06/27 00:09:55;;;;;;;11.18;5.70;;;;;;;17.23;100.00;101895.75;5041532;28;20042;-75
2023/06/27 00:12:22;;;;;;;5.78;4.15;;;;;;;16.88;100.00;101906.44;5036882;28;20069;-75
2023/06/27 00:14:47;;;;;;;9.07;4.82;;;;;;;16.88;100.00;101904.59;5037513;28;20249;-73
2023/06/27 00:17:14;;;;;;;7.10;5.07;;;;;;;16.94;100.00;101911.38;5042569;28;20084;-72
2023/06/27 00:19:40;;;;;;;4.40;4.00;;;;;;;17.00;100.00;101908.22;5041432;28;20024;-72
2023/06/27 00:22:09;;;;;;;5.57;4.50;;;;;;;17.06;100.00;101907.75;5038580;28;20061;-72
2023/06/27 00:24:38;;;;;;;9.40;4.32;;;;;;;17.11;100.00;101902.91;5037531;28;20038;-75
2023/06/27 00:27:05;;;;;;;8.68;5.53;;;;;;;17.17;100.00;101907.84;5038715;28;20033;-73
2023/06/27 00:29:34;;;;;;;7.85;5.50;;;;;;;17.15;100.00;101903.53;5036707;28;20146;-73
2023/06/27 00:31:59;;;;;;;9.07;5.05;;;;;;;17.10;100.00;101901.19;5036849;28;20045;-75
2023/06/27 00:34:25;;;;;;;12.20;6.20;;;;;;;17.00;100.00;101897.44;5036523;28;20045;-72
2023/06/27 00:36:50;;;;;;;9.23;5.32;;;;;;;17.00;100.00;101905.53;5041438;28;20700;-73
2023/06/27 00:39:16;;;;;;;10.25;5.22;;;;;;;17.15;100.00;101906.22;5033295;28;20037;-76
2023/06/27 00:41:41;;;;;;;6.78;4.85;;;;;;;17.15;100.00;101911.63;5034911;28;20538;-73
2023/06/27 00:44:08;;;;;;;7.53;5.13;;;;;;;17.07;100.00;101907.69;5033889;28;20590;-73
2023/06/27 00:46:38;;;;;;;12.20;6.13;;;;;;;16.97;100.00;101916.56;5035860;28;20041;-72
2023/06/27 00:49:09;;;;;;;9.57;5.18;;;;;;;16.92;100.00;101908.81;5065739;28;20128;-74
2023/06/27 00:51:35;;;;;;;8.27;5.07;;;;;;;16.90;100.00;101905.34;5036005;28;20235;-72
2023/06/27 00:54:01;;;;;;;14.85;6.22;;;;;;;16.93;100.00;101899.75;5041839;28;20037;-72
2023/06/27 00:56:27;;;;;;;9.57;5.80;;;;;;;17.05;100.00;101900.66;5044481;28;20107;-73
2023/06/27 00:59:00;;;;;;;10.32;6.38;;;;;;;17.02;100.00;101900.91;5033784;28;20041;-72
2023/06/27 01:01:29;;;;;;;11.52;6.60;;;;;;;16.93;100.00;101899.75;5033140;28;20464;-72
2023/06/27 01:03:55;;;;;;;9.02;5.50;;;;;;;17.02;100.00;101898.22;5015847;28;21156;-73
2023/06/27 01:06:45;;;;;;;8.57;5.70;;;;;;;17.13;100.00;101892.88;5033814;28;20049;-73
2023/06/27 01:09:23;;;;;;;8.77;5.55;;;;;;;17.21;100.00;101890.44;5039125;28;20108;-72
2023/06/27 01:12:32;;;;;;;13.30;6.63;;;;;;;17.19;100.00;101887.03;5043379;28;20026;-72
2023/06/27 01:14:59;;;;;;;13.10;6.30;;;;;;;17.24;100.00;101881.28;5031708;28;20089;-73
2023/06/27 01:17:27;;;;;;;7.78;5.32;;;;;;;17.17;100.00;101877.31;5033092;28;20317;-72
2023/06/27 01:19:54;;;;;;;12.75;6.95;;;;;;;17.23;100.00;101880.44;5034130;28;20159;-73
2023/06/27 01:22:35;;;;;;;10.82;6.88;;;;;;;17.26;100.00;101884.72;5069851;28;20038;-73
2023/06/27 01:25:02;;;;;;;14.48;6.50;;;;;;;17.30;100.00;101880.81;5033791;28;20878;-72
2023/06/27 01:27:28;;;;;;;14.43;7.18;;;;;;;17.31;100.00;101882.53;5035130;28;20119;-73
2023/06/27 01:29:54;;;;;;;12.90;6.78;;;;;;;17.44;100.00;101880.66;5034203;28;20659;-72
2023/06/27 01:32:38;;;;;;;11.68;6.40;;;;;;;17.47;100.00;101874.16;5069217;28;20095;-73
2023/06/27 01:35:22;;;;;;;15.52;6.97;;;;;;;17.32;100.00;101876.19;5034234;28;20045;-73
2023/06/27 01:37:58;;;;;;;13.02;7.63;;;;;;;17.21;100.00;101874.28;5034265;28;20052;-72
2023/06/27 01:40:28;;;;;;;9.77;6.65;;;;;;;17.32;100.00;101878.91;5034194;28;20096;-73
2023/06/27 01:43:01;;;;;;;12.00;7.05;;;;;;;17.34;100.00;101876.94;5033850;28;20044;-72
2023/06/27 01:45:28;;;;;;;15.38;7.68;;;;;;;17.28;100.00;101874.69;5064326;28;20042;-72
2023/06/27 01:47:54;;;;;;;15.02;8.02;;;;;;;17.33;100.00;101883.31;5033757;28;20045;-73
2023/06/27 01:50:20;;;;;;;13.85;7.78;;;;;;;17.23;100.00;101877.75;5035645;28;20034;-72
2023/06/27 01:52:46;;;;;;;16.20;7.80;;;;;;;17.25;100.00;101883.88;5032521;28;20786;-72
2023/06/27 01:55:11;;;;;;;12.18;6.72;;;;;;;17.19;100.00;101870.84;5033129;28;20787;-72
2023/06/27 01:57:37;;;;;;;14.18;6.78;;;;;;;17.37;100.00;101870.44;5034264;28;20040;-74
2023/06/27 02:00:05;;;;;;;8.25;6.40;;;;;;;17.38;100.00;101875.72;5029903;28;20021;-72
2023/06/27 02:02:41;;;;;;;16.50;7.45;;;;;;;17.37;100.00;101862.34;5031941;28;20060;-74
2023/06/27 02:05:07;;;;;;;10.25;6.88;;;;;;;17.25;100.00;101858.75;5034129;28;20598;-74
2023/06/27 02:07:34;;;;;;;16.33;6.90;;;;;;;17.19;100.00;101857.38;5037784;28;20120;-74
2023/06/27 02:10:00;;;;;;;17.58;6.75;;;;;;;17.22;100.00;101867.94;5034134;28;20042;-72
2023/06/27 02:12:26;;;;;;;12.75;7.57;;;;;;;17.18;100.00;101865.59;5032153;28;20460;-73
2023/06/27 02:14:52;;;;;;;13.88;7.13;;;;;;;17.32;100.00;101870.81;5036655;28;20600;-74
2023/06/27 02:17:17;;;;;;;10.80;6.63;;;;;;;17.44;100.00;101866.31;5032654;28;20510;-71
2023/06/27 02:19:43;;;;;;;17.63;7.72;;;;;;;17.37;100.00;101860.53;5036254;28;20742;-74
2023/06/27 02:22:08;;;;;;;13.27;7.05;;;;;;;17.55;100.00;101856.41;5035641;28;20052;-72
2023/06/27 02:24:34;;;;;;;15.07;7.80;;;;;;;17.31;100.00;101856.44;5033895;28;20638;-73
2023/06/27 02:27:01;;;;;;;14.45;6.70;;;;;;;17.40;100.00;101856.72;5032971;28;20068;-72
2023/06/27 02:29:26;;;;;;;12.52;6.88;;;;;;;17.51;100.00;101854.06;5033021;28;20249;-72
2023/06/27 02:31:52;;;;;;;14.40;7.78;;;;;;;17.41;100.00;101853.03;5033858;28;20369;-72
2023/06/27 02:34:17;;;;;;;14.18;7.78;;;;;;;17.35;100.00;101852.53;5036949;28;20989;-72
2023/06/27 02:36:43;;;;;;;17.02;7.18;;;;;;;17.35;100.00;101849.84;5038702;28;20886;-71
2023/06/27 02:39:08;;;;;;;12.35;7.05;;;;;;;17.55;100.00;101845.63;5043106;28;20462;-72
2023/06/27 02:41:34;;;;;;;15.55;7.57;;;;;;;17.61;100.00;101850.53;5040015;28;20053;-73
2023/06/27 02:44:02;;;;;;;12.30;6.90;;;;;;;17.63;100.00;101849.59;5080177;28;20154;-72
2023/06/27 02:46:27;;;;;;;11.88;6.78;;;;;;;17.60;100.00;101845.28;5043110;28;20152;-72
2023/06/27 02:48:53;;;;;;;17.65;7.05;;;;;;;17.63;100.00;101849.59;5047470;28;20081;-73
2023/06/27 02:51:20;;;;;;;11.73;6.90;;;;;;;17.80;100.00;101851.84;5051702;28;20041;-72
2023/06/27 02:53:46;;;;;;;13.07;7.75;;;;;;;17.80;100.00;101855.41;5047021;28;20042;-73
2023/06/27 02:56:11;;;;;;;12.57;6.13;;;;;;;17.78;100.00;101857.38;5047225;28;20041;-73
2023/06/27 02:58:39;;;;;;;17.13;7.32;;;;;;;17.63;100.00;101846.88;5044939;28;20033;-73
2023/06/27 03:01:08;;;;;;;12.70;6.65;;;;;;;17.65;100.00;101848.47;5058295;28;21030;-72
2023/06/27 03:03:37;;;;;;;14.23;6.70;;;;;;;17.58;100.00;101844.53;5052924;28;20071;-73
2023/06/27 03:06:08;;;;;;;13.50;5.30;;;;;;;17.51;100.00;101854.06;5063350;28;20041;-73
2023/06/27 03:08:37;;;;;;;13.00;6.60;;;;;;;17.44;100.00;101864.47;5057190;28;20037;-72
2023/06/27 03:11:03;;;;;;;16.20;6.18;;;;;;;17.37;100.00;101865.94;5044163;28;20037;-72
2023/06/27 03:13:29;;;;;;;15.05;6.45;;;;;;;17.27;100.00;101864.88;5050774;28;20524;-72
2023/06/27 03:15:55;;;;;;;18.02;6.85;;;;;;;17.26;100.00;101866.72;5044021;28;20037;-72
2023/06/27 03:18:20;;;;;;;14.43;6.72;;;;;;;17.25;100.00;101874.91;5049914;28;20115;-72
2023/06/27 03:20:46;;;;;;;11.55;5.80;;;;;;;17.16;100.00;101871.06;5048559;28;20033;-73
2023/06/27 03:23:11;;;;;;;13.45;6.10;;;;;;;17.11;100.00;101870.56;5044459;28;20487;-72
2023/06/27 03:25:37;;;;;;;15.05;6.68;;;;;;;17.13;100.00;101876.72;5036334;28;20838;-72
2023/06/27 03:28:03;;;;;;;16.08;7.10;;;;;;;17.07;100.00;101875.34;5067338;28;20034;-72
2023/06/27 03:30:34;;;;;;;12.30;6.40;;;;;;;17.29;100.00;101881.81;5035261;28;20268;-73
2023/06/27 03:33:00;;;;;;;17.35;6.57;;;;;;;17.51;100.00;101870.25;5035188;28;20084;-73
2023/06/27 03:35:25;;;;;;;15.00;7.10;;;;;;;17.63;100.00;101871.16;5035519;28;20398;-72
2023/06/27 03:37:51;;;;;;;15.82;7.25;;;;;;;17.78;100.00;101870.88;5032219;28;20044;-72
2023/06/27 03:40:17;;;;;;;24.15;6.63;;;;;;;18.07;100.00;101874.00;5039143;28;20037;-73
2023/06/27 03:42:43;;;;;;;16.08;6.40;;;;;;;18.49;100.00;101873.41;5031359;28;20033;-71
2023/06/27 03:45:09;;;;;;;16.65;7.35;;;;;;;18.69;100.00;101879.94;5035196;28;20034;-72
2023/06/27 03:47:37;;;;;;;15.18;7.00;;;;;;;19.21;100.00;101868.38;5063599;28;20022;-72
2023/06/27 03:50:03;;;;;;;13.93;6.53;;;;;;;19.44;100.00;101871.03;5039181;28;20104;-73
2023/06/27 03:52:28;;;;;;;18.20;6.82;;;;;;;19.74;100.00;101867.59;5036352;28;20202;-72
2023/06/27 03:54:54;;;;;;;19.30;6.28;;;;;;;20.20;100.00;101859.03;5031905;28;20037;-72
2023/06/27 03:57:19;;;;;;;12.07;6.07;;;;;;;20.29;99.18;101860.94;5062991;28;20022;-73
2023/06/27 03:59:45;;;;;;;19.25;6.55;;;;;;;20.54;96.33;101861.50;5029150;28;20038;-73
2023/06/27 04:02:10;;;;;;;14.82;6.05;;;;;;;20.51;94.72;101865.31;5039332;28;20045;-72
2023/06/27 04:04:36;;;;;;;11.63;6.30;;;;;;;20.40;95.81;101859.97;5035468;28;20033;-73
2023/06/27 04:07:02;;;;;;;11.65;6.00;;;;;;;20.36;93.92;101862.09;5031422;28;20120;-73
2023/06/27 04:09:28;;;;;;;9.85;6.07;;;;;;;20.61;94.69;101871.63;5040054;28;20056;-72
2023/06/27 04:11:54;;;;;;;13.32;6.00;;;;;;;20.60;93.06;101861.78;5030790;28;20458;-73
2023/06/27 04:14:22;;;;;;;14.32;6.30;;;;;;;20.38;95.73;101857.41;5028088;28;21179;-73
2023/06/27 04:16:48;;;;;;;17.00;6.05;;;;;;;20.46;96.95;101861.28;5029975;28;20615;-73
2023/06/27 04:19:14;;;;;;;14.02;5.78;;;;;;;20.65;97.04;101859.53;5063053;28;20064;-73
2023/06/27 04:21:40;;;;;;;21.73;7.13;;;;;;;21.34;94.30;101852.41;5041472;28;20099;-72
2023/06/27 04:24:06;;;;;;;16.10;6.32;;;;;;;22.36;86.32;101842.63;5041083;28;20040;-72
2023/06/27 04:26:32;;;;;;;18.77;6.75;;;;;;;23.43;79.21;101850.97;5032745;28;20056;-73
2023/06/27 04:28:58;;;;;;;13.98;5.88;;;;;;;24.02;75.19;101843.97;5033895;28;20029;-73
2023/06/27 04:31:25;;;;;;;18.25;6.70;;;;;;;24.69;69.36;101846.03;5033032;28;20068;-74
2023/06/27 04:33:55;;;;;;;12.90;6.22;;;;;;;25.20;66.92;101838.69;5033227;28;20030;-73
2023/06/27 04:36:24;;;;;;;18.52;6.88;;;;;;;25.11;66.78;101839.72;5041870;28;20124;-73
2023/06/27 04:38:50;;;;;;;14.38;6.47;;;;;;;25.69;63.80;101844.16;5037384;28;20094;-73
2023/06/27 04:41:15;;;;;;;16.55;6.20;;;;;;;25.46;62.17;101835.81;5038125;28;20091;-73
2023/06/27 04:43:42;;;;;;;14.43;6.05;;;;;;;25.30;62.22;101844.84;5046546;28;20037;-73
2023/06/27 04:46:07;;;;;;;13.98;6.00;;;;;;;25.53;64.16;101848.59;5039965;28;20029;-73
2023/06/27 04:48:33;;;;;;;14.88;5.75;;;;;;;26.43;61.99;101840.31;5033324;28;20037;-72
2023/06/27 04:50:59;;;;;;;14.00;6.47;;;;;;;26.30;59.70;101843.56;5033982;28;20049;-72
2023/06/27 04:53:24;;;;;;;15.15;6.32;;;;;;;26.51;60.24;101831.22;5035814;28;20060;-72
2023/06/27 04:55:51;;;;;;;15.00;6.47;;;;;;;26.97;58.34;101843.13;5036467;28;20040;-72
2023/06/27 04:58:18;;;;;;;10.80;6.30;;;;;;;26.63;57.00;101843.47;5032377;28;20136;-73
2023/06/27 05:00:44;;;;;;;11.73;5.90;;;;;;;25.99;58.18;101845.34;5036198;28;20052;-72
2023/06/27 05:03:10;;;;;;;17.75;6.43;;;;;;;25.51;60.93;101850.66;5033027;28;20083;-71
2023/06/27 05:05:36;;;;;;;14.80;6.38;;;;;;;24.93;61.79;101856.19;5035136;28;20963;-72
2023/06/27 05:08:03;;;;;;;17.00;6.50;;;;;;;23.92;65.49;101853.28;5037861;28;20059;-72
2023/06/27 05:10:30;;;;;;;17.85;6.82;;;;;;;23.48;68.56;101856.81;5046930;28;20102;-72
2023/06/27 05:12:56;;;;;;;13.20;6.68;;;;;;;23.23;71.13;101863.91;5046113;28;20033;-72
2023/06/27 05:15:22;;;;;;;12.13;6.10;;;;;;;22.83;72.37;101869.72;5049282;28;20037;-72
2023/06/27 05:17:53;;;;;;;17.52;6.80;;;;;;;22.80;75.91;101866.47;5047926;28;20033;-72
2023/06/27 05:20:19;;;;;;;23.93;8.47;;;;;;;22.32;75.85;101864.81;5047006;28;20109;-72
2023/06/27 05:22:45;;;;;;;16.02;6.57;;;;;;;21.85;78.09;101865.63;5047842;28;20029;-73
2023/06/27 05:25:11;;;;;;;17.65;7.55;;;;;;;21.54;82.21;101864.97;5046748;28;20033;-72
2023/06/27 05:27:37;;;;;;;17.85;7.00;;;;;;;21.37;84.94;101876.53;5051464;28;20039;-71
2023/06/27 05:30:03;;;;;;;17.17;6.95;;;;;;;21.06;87.05;101882.03;5048462;28;20071;-73
2023/06/27 05:32:29;;;;;;;22.65;7.47;;;;;;;20.97;90.04;101879.28;5046407;28;21058;-72
2023/06/27 05:34:55;;;;;;;20.42;7.40;;;;;;;21.08;92.35;101874.59;5040134;28;20045;-71
2023/06/27 05:37:20;;;;;;;23.10;8.43;;;;;;;20.83;90.75;101875.97;5047393;28;20033;-72
2023/06/27 05:39:46;;;;;;;17.48;8.50;;;;;;;20.86;92.23;101864.84;5047559;28;20045;-72
2023/06/27 05:42:11;;;;;;;23.35;8.15;;;;;;;20.88;93.21;101868.31;5047841;28;20477;-72
2023/06/27 05:44:37;;;;;;;23.70;8.27;;;;;;;20.74;94.21;101873.25;5047082;28;20034;-72
2023/06/27 05:47:03;;;;;;;21.17;8.00;;;;;;;21.07;94.61;101878.31;5044453;28;20040;-72
2023/06/27 05:49:28;;;;;;;23.08;7.65;;;;;;;21.07;92.99;101878.31;5043093;28;20685;-72
2023/06/27 05:51:54;;;;;;;18.83;7.60;;;;;;;21.27;92.41;101876.47;5036702;28;20511;-73
2023/06/27 05:54:20;;;;;;;16.92;7.63;;;;;;;21.60;89.99;101875.25;5038711;28;20561;-73
2023/06/27 05:56:45;;;;;;;16.17;7.97;;;;;;;22.39;88.74;101866.81;5032255;28;20038;-73
2023/06/27 05:59:11;;;;;;;23.58;7.60;;;;;;;22.48;82.49;101879.47;5034983;28;20059;-72
2023/06/27 06:01:37;;;;;;;19.42;6.68;;;;;;;23.05;80.79;101882.09;5037842;28;20147;-73
2023/06/27 06:04:06;;;;;;;20.40;7.75;;;;;;;23.21;78.13;101873.25;5032447;28;20898;-73
2023/06/27 06:06:38;;;;;;;23.40;7.65;;;;;;;23.38;76.94;101876.97;5032523;28;20033;-73
2023/06/27 06:09:05;;;;;;;20.30;7.60;;;;;;;23.52;76.20;101874.56;5037443;28;20088;-72
2023/06/27 06:11:33;;;;;;;21.27;7.13;;;;;;;23.69;76.77;101874.72;5036423;28;20047;-72
2023/06/27 06:13:59;;;;;;;19.67;7.47;;;;;;;23.42;75.07;101868.34;5041545;28;20052;-72
2023/06/27 06:16:25;;;;;;;18.10;7.45;;;;;;;23.37;75.89;101876.13;5034703;28;20033;-72
2023/06/27 06:18:50;;;;;;;30.13;8.43;;;;;;;23.47;75.71;101865.16;5031049;28;20041;-72
2023/06/27 06:21:16;;;;;;;17.55;6.97;;;;;;;23.27;76.58;101875.34;5029779;28;20064;-72
2023/06/27 06:23:44;;;;;;;20.45;7.15;;;;;;;23.51;75.96;101867.41;5045144;28;20119;-71
2023/06/27 06:26:10;;;;;;;15.93;7.32;;;;;;;23.74;76.13;101880.53;5038479;28;20052;-72
2023/06/27 06:28:37;;;;;;;19.67;8.43;;;;;;;23.66;75.39;101873.19;5031648;28;20046;-73
2023/06/27 06:31:03;;;;;;;19.75;7.65;;;;;;;23.04;76.49;101884.94;5032149;28;20171;-72
2023/06/27 06:33:29;;;;;;;20.58;7.60;;;;;;;23.30;76.14;101894.09;5037223;28;20025;-72
2023/06/27 06:35:55;;;;;;;19.23;7.78;;;;;;;23.34;76.31;101887.31;5031432;28;20042;-72
2023/06/27 06:38:21;;;;;;;20.83;7.22;;;;;;;23.10;76.60;101896.09;5066621;28;20165;-71
2023/06/27 06:40:46;;;;;;;19.33;6.97;;;;;;;23.60;77.12;101886.53;5037640;28;20091;-72
2023/06/27 06:43:12;;;;;;;22.35;8.13;;;;;;;23.86;74.62;101892.91;5041181;28;20138;-72
2023/06/27 06:45:37;;;;;;;19.52;7.50;;;;;;;24.44;72.13;101885.97;5038515;28;20041;-72
2023/06/27 06:48:03;;;;;;;20.05;7.20;;;;;;;24.60;71.61;101890.66;5029097;28;20045;-72
2023/06/27 06:50:30;;;;;;;20.23;7.50;;;;;;;24.72;68.49;101895.69;5030909;28;20037;-72
2023/06/27 06:52:56;;;;;;;19.45;7.70;;;;;;;25.06;68.19;101894.78;5033828;28;20047;-73
2023/06/27 06:55:23;;;;;;;16.27;6.78;;;;;;;24.61;66.37;101901.44;5035074;28;20041;-72
2023/06/27 06:57:49;;;;;;;14.00;6.35;;;;;;;24.88;66.95;101896.75;5036351;28;20091;-73
2023/06/27 07:00:15;;;;;;;15.32;6.07;;;;;;;25.00;67.72;101901.75;5039473;28;20044;-72
2023/06/27 07:02:44;;;;;;;19.63;6.80;;;;;;;25.21;67.13;101898.59;5036777;28;20059;-73
2023/06/27 07:05:10;;;;;;;16.75;6.50;;;;;;;25.04;65.76;101900.38;5032945;28;20025;-72
2023/06/27 07:07:35;;;;;;;20.48;7.45;;;;;;;25.13;65.84;101892.25;5034200;28;20061;-72
2023/06/27 07:10:01;;;;;;;19.02;7.10;;;;;;;25.14;65.02;101897.53;5034129;28;20033;-72
2023/06/27 07:12:26;;;;;;;19.27;6.45;;;;;;;25.31;63.20;101893.84;5039616;28;20033;-72
2023/06/27 07:14:52;;;;;;;13.65;5.75;;;;;;;25.35;62.09;101891.59;5039614;28;20049;-73
2023/06/27 07:17:18;;;;;;;18.00;6.00;;;;;;;25.20;63.71;101896.91;5039146;28;20037;-73
2023/06/27 07:19:43;;;;;;;14.63;5.90;;;;;;;25.26;64.31;101892.63;5046230;28;20977;-73
2023/06/27 07:22:09;;;;;;;17.63;6.13;;;;;;;25.17;62.10;101880.00;5038421;28;20177;-73
2023/06/27 07:24:35;;;;;;;16.30;6.45;;;;;;;25.36;63.21;101893.34;5056828;28;20033;-72
2023/06/27 07:27:00;;;;;;;17.67;5.60;;;;;;;25.33;62.42;101881.88;5042079;28;20120;-72
2023/06/27 07:29:26;;;;;;;10.20;4.35;;;;;;;25.24;58.14;101891.94;5058194;28;20037;-73
2023/06/27 07:31:51;;;;;;;13.55;4.07;;;;;;;25.35;58.92;101883.41;5052087;28;20788;-74
2023/06/27 07:34:17;;;;;;;15.45;4.05;;;;;;;25.60;60.49;101883.44;5047263;28;20034;-74
2023/06/27 07:36:43;;;;;;;13.48;4.63;;;;;;;25.52;58.84;101882.41;5055433;28;20573;-72
2023/06/27 07:39:09;;;;;;;11.55;4.90;;;;;;;25.63;57.56;101883.97;5043839;28;20025;-73
2023/06/27 07:41:35;;;;;;;14.23;4.78;;;;;;;25.38;58.06;101883.09;5050085;28;20041;-72
2023/06/27 07:44:02;;;;;;;13.02;5.13;;;;;;;25.44;57.37;101887.88;5043361;28;20091;-72
2023/06/27 07:46:27;;;;;;;13.48;5.60;;;;;;;25.60;58.71;101887.03;5050414;28;20049;-72
2023/06/27 07:48:54;;;;;;;17.42;5.03;;;;;;;25.62;58.67;101886.88;5045863;28;20022;-73
2023/06/27 07:51:19;;;;;;;12.75;4.82;;;;;;;25.79;59.66;101877.66;5051482;28;20387;-72
2023/06/27 07:53:45;;;;;;;14.80;4.72;;;;;;;26.20;58.17;101881.19;5047924;28;20580;-72
2023/06/27 07:56:11;;;;;;;12.80;4.03;;;;;;;26.39;57.80;101882.69;5039555;28;20042;-72
2023/06/27 07:58:36;;;;;;;12.57;4.07;;;;;;;26.92;56.51;101878.41;5039907;28;20044;-72
2023/06/27 08:01:02;;;;;;;12.38;4.75;;;;;;;26.83;56.84;101877.56;5044354;28;20768;-74
2023/06/27 08:03:27;;;;;;;10.07;3.15;;;;;;;26.60;52.18;101874.75;5041069;28;20041;-73
2023/06/27 08:05:55;;;;;;;9.70;3.60;;;;;;;26.48;52.93;101876.19;5037533;28;20121;-72
2023/06/27 08:08:20;;;;;;;8.32;3.30;;;;;;;26.53;52.69;101872.94;5035200;28;20025;-72
2023/06/27 08:10:46;;;;;;;11.25;3.70;;;;;;;26.33;54.06;101869.72;5036427;28;20719;-72
2023/06/27 08:13:12;;;;;;;11.52;3.92;;;;;;;26.81;56.66;101865.97;5039681;28;20041;-72
2023/06/27 08:15:37;;;;;;;9.10;3.15;;;;;;;26.20;54.75;101869.41;5033822;28;20577;-72
2023/06/27 08:18:03;;;;;;;12.60;3.30;;;;;;;26.59;55.11;101869.47;5034411;28;20045;-72
2023/06/27 08:20:29;;;;;;;8.55;3.13;;;;;;;26.96;54.85;101867.91;5043499;28;20131;-73
2023/06/27 08:22:54;;;;;;;11.70;3.05;;;;;;;27.24;50.43;101865.56;5042152;28;20395;-75
2023/06/27 08:25:20;;;;;;;10.63;3.20;;;;;;;27.02;49.83;101868.06;5037222;28;20391;-72
2023/06/27 08:27:45;;;;;;;5.22;2.20;;;;;;;26.92;48.72;101872.06;5048573;28;20051;-72
2023/06/27 08:30:11;;;;;;;4.50;2.10;;;;;;;26.62;47.83;101871.88;5041588;28;20463;-72
2023/06/27 08:32:37;;;;;;;5.57;2.45;;;;;;;26.91;49.44;101871.22;5035881;28;20037;-72
2023/06/27 08:35:05;;;;;;;6.88;2.65;;;;;;;27.21;49.07;101875.00;5032205;28;20140;-72
2023/06/27 08:37:31;;;;;;;4.50;2.28;;;;;;;27.13;49.00;101866.84;5037937;28;20035;-72
2023/06/27 08:39:56;;;;;;;7.55;3.05;;;;;;;27.45;49.88;101865.72;5034680;28;20779;-72
2023/06/27 08:42:22;;;;;;;9.43;3.10;;;;;;;27.38;49.83;101864.78;5036770;28;20037;-73
2023/06/27 08:44:51;;;;;;;7.10;2.80;;;;;;;27.14;48.75;101860.31;5038892;28;20037;-72
2023/06/27 08:47:19;;;;;;;7.03;2.50;;;;;;;26.89;49.56;101867.78;5038475;28;20037;-72
2023/06/27 08:49:49;;;;;;;9.13;2.13;;;;;;;27.04;48.31;101865.13;5034416;28;20690;-72
2023/06/27 08:52:19;;;;;;;6.20;1.70;;;;;;;26.47;47.62;101863.53;5034888;28;20037;-72
2023/06/27 08:54:51;;;;;;;9.23;2.20;;;;;;;26.66;49.97;101862.28;5038710;28;20506;-72
2023/06/27 08:57:18;;;;;;;5.22;1.90;;;;;;;26.76;48.17;101857.44;5030948;28;20148;-72
2023/06/27 08:59:46;;;;;;;8.00;2.28;;;;;;;27.14;47.74;101859.47;5035766;28;20025;-72
2023/06/27 09:02:13;;;;;;;6.05;1.95;;;;;;;27.32;47.85;101857.28;5034602;28;20033;-72
2023/06/27 09:04:41;;;;;;;9.07;2.28;;;;;;;27.59;47.69;101850.38;5036902;28;20037;-72
2023/06/27 09:07:07;;;;;;;4.95;2.03;;;;;;;27.31;46.89;101853.72;5040221;28;20049;-72
2023/06/27 09:09:34;;;;;;;8.52;2.95;;;;;;;27.09;46.43;101854.53;5039383;28;20140;-73
2023/06/27 09:12:02;;;;;;;5.40;2.22;;;;;;;27.26;45.44;101850.66;5032939;28;20033;-73
2023/06/27 09:14:28;;;;;;;5.78;1.90;;;;;;;27.35;45.03;101848.69;5031819;28;20056;-72
2023/06/27 09:16:54;;;;;;;5.28;2.13;;;;;;;26.95;46.30;101860.75;5033354;28;20487;-72
2023/06/27 09:19:21;;;;;;;5.30;2.10;;;;;;;26.83;44.84;101852.09;5039563;28;20033;-72
2023/06/27 09:21:48;;;;;;;8.18;1.90;;;;;;;26.95;45.06;101860.75;5044081;28;20143;-73
2023/06/27 09:24:14;;;;;;;6.82;2.38;;;;;;;27.75;45.15;101849.41;5030110;28;21014;-72
2023/06/27 09:26:40;;;;;;;5.05;2.13;;;;;;;28.03;44.83;101846.91;5032025;28;20562;-72
2023/06/27 09:29:06;;;;;;;8.10;2.55;;;;;;;27.34;44.55;101844.25;5034176;28;20034;-72
2023/06/27 09:31:33;;;;;;;4.68;1.98;;;;;;;26.93;45.74;101849.13;5038427;28;20037;-73
2023/06/27 09:34:11;;;;;;;9.13;2.83;;;;;;;27.43;45.80;101845.06;5037712;28;20106;-72
2023/06/27 09:36:39;;;;;;;8.02;2.40;;;;;;;27.44;44.61;101846.75;5037993;28;21028;-72
2023/06/27 09:39:06;;;;;;;6.65;2.13;;;;;;;27.19;45.26;101854.28;5033025;28;20104;-73
2023/06/27 09:41:47;;;;;;;8.98;2.63;;;;;;;26.28;46.42;101855.72;5032499;28;21587;-72
2023/06/27 09:44:21;;;;;;;7.70;2.08;;;;;;;25.93;46.50;101854.25;5036566;28;20112;-73
2023/06/27 09:46:49;;;;;;;14.02;2.45;;;;;;;25.79;46.40;101861.25;5036826;28;20030;-74
2023/06/27 09:49:15;;;;;;;4.55;1.92;;;;;;;25.82;47.29;101863.66;5031145;28;20126;-73
2023/06/27 09:51:45;;;;;;;12.15;2.05;;;;;;;25.43;47.20;101864.31;5037270;28;20058;-73
2023/06/27 09:54:17;;;;;;;4.90;2.08;;;;;;;25.66;47.93;101869.13;5036103;28;20044;-72
2023/06/27 09:56:43;;;;;;;5.13;1.77;;;;;;;25.38;47.40;101874.88;5033330;28;20148;-75
2023/06/27 09:59:10;;;;;;;5.32;2.03;;;;;;;25.25;48.85;101871.78;5038412;28;20059;-71
2023/06/27 10:01:40;;;;;;;6.10;2.08;;;;;;;25.25;48.48;101866.31;5069349;28;20045;-75
2023/06/27 10:04:07;;;;;;;5.03;2.35;;;;;;;25.40;49.24;101866.53;5032956;28;20172;-73
2023/06/27 10:06:33;;;;;;;5.85;2.00;;;;;;;25.34;50.51;101869.94;5036402;28;20194;-74
2023/06/27 10:08:59;;;;;;;5.30;1.98;;;;;;;25.23;49.27;101863.78;5034002;28;20043;-75
2023/06/27 10:11:25;;;;;;;4.03;1.60;;;;;;;25.20;48.43;101875.06;5032268;28;20167;-75
2023/06/27 10:13:52;;;;;;;6.28;2.20;;;;;;;25.12;49.23;101865.97;5040302;28;20037;-73
2023/06/27 10:16:18;;;;;;;5.65;2.40;;;;;;;25.67;48.63;101859.88;5038906;28;20045;-74
2023/06/27 10:18:44;;;;;;;8.43;2.05;;;;;;;26.26;47.77;101869.56;5036161;28;21288;-73
2023/06/27 10:21:14;;;;;;;6.05;2.20;;;;;;;26.21;48.25;101860.19;5036692;28;20088;-72
2023/06/27 10:23:46;;;;;;;10.35;2.50;;;;;;;26.51;46.92;101853.97;5035994;28;20038;-73
2023/06/27 10:26:12;;;;;;;6.50;1.65;;;;;;;26.67;46.02;101855.75;5035284;28;20587;-72
2023/06/27 10:28:37;;;;;;;9.45;2.10;;;;;;;25.96;46.47;101852.03;5041741;28;20041;-72
2023/06/27 10:31:04;;;;;;;5.05;1.90;;;;;;;26.14;45.86;101854.53;5040821;28;20039;-72
2023/06/27 10:33:32;;;;;;;5.10;1.70;;;;;;;25.56;46.60;101861.94;5050421;28;20033;-73
2023/06/27 10:36:01;;;;;;;4.47;2.05;;;;;;;25.36;47.57;101859.72;5046925;28;20071;-73
2023/06/27 10:38:36;;;;;;;4.72;1.70;;;;;;;25.12;47.26;101860.53;5045576;28;20038;-72
2023/06/27 10:41:09;;;;;;;5.22;1.70;;;;;;;24.94;47.52;101864.19;5045649;28;20593;-73
2023/06/27 10:43:52;;;;;;;11.18;2.47;;;;;;;25.58;47.93;101864.50;5041504;28;20040;-73
2023/06/27 10:46:22;;;;;;;4.35;1.33;;;;;;;25.83;47.37;101854.44;5034643;28;20136;-72
2023/06/27 10:48:54;;;;;;;2.58;1.60;;;;;;;26.15;44.48;101858.13;5041383;28;20037;-72
2023/06/27 10:51:32;;;;;;;5.20;1.83;;;;;;;25.82;44.39;101850.00;5030699;28;20064;-72
2023/06/27 10:54:07;;;;;;;6.88;1.70;;;;;;;25.75;44.73;101852.56;5039338;28;21073;-73
2023/06/27 10:56:39;;;;;;;6.60;1.92;;;;;;;26.93;43.66;101840.91;5050967;28;20048;-72
2023/06/27 10:59:13;;;;;;;7.18;1.80;;;;;;;27.30;43.70;101845.66;5075964;28;20045;-73
2023/06/27 11:01:49;;;;;;;4.88;1.98;;;;;;;26.95;45.71;101842.44;5051824;28;20033;-72
2023/06/27 11:04:40;;;;;;;6.32;1.92;;;;;;;27.41;43.15;101844.34;5032719;28;20037;-72
2023/06/27 11:07:08;;;;;;;8.45;1.80;;;;;;;27.76;45.15;101831.91;5034417;28;20095;-72
2023/06/27 11:09:36;;;;;;;4.45;1.60;;;;;;;26.90;43.67;101842.13;5029800;28;20744;-73
2023/06/27 11:12:11;;;;;;;6.00;1.80;;;;;;;26.38;43.54;101847.31;5034190;28;20041;-72
2023/06/27 11:14:45;;;;;;;6.13;2.00;;;;;;;26.16;44.33;101847.03;5030980;28;20172;-73
2023/06/27 11:17:12;;;;;;;6.70;1.92;;;;;;;26.47;46.74;101854.50;5030694;28;20053;-72